Time;durP1;ratioP1;P1;durP2;ratioP2;P2;SDS_P1;SDS_P2;PMS_P1;PMS_P2;Temp;Humidity;BMP_temperature;BMP_pressure;BME280_temperature;BME280_humidity;BME280_pressure;Samples;Min_cycle;Max_cycle;Signal;HPM_P1;HPM_P2
2022/08/23 00:01:15;;;;;;;;;0.00;0.00;;;;;22.29;76.06;100434.47;5015207;28;46572;-79
2022/08/23 00:03:41;;;;;;;;;0.33;0.00;;;;;22.11;76.44;100422.38;5012239;28;45364;-79
2022/08/23 00:06:08;;;;;;;;;0.00;0.00;;;;;22.17;76.73;100442.66;5016951;28;45446;-75
2022/08/23 00:08:34;;;;;;;;;0.67;0.00;;;;;21.95;76.42;100411.16;5016308;28;45469;-80
2022/08/23 00:11:00;;;;;;;;;0.00;0.00;;;;;22.03;76.21;100430.50;5012227;28;46202;-79
2022/08/23 00:13:25;;;;;;;;;0.67;0.00;;;;;22.05;76.54;100435.81;5012832;28;45609;-79
2022/08/23 00:15:52;;;;;;;;;0.00;0.00;;;;;22.01;76.49;100426.13;5011924;28;45486;-79
2022/08/23 00:18:19;;;;;;;;;0.00;0.00;;;;;21.99;77.10;100422.63;5008817;28;45688;-79
2022/08/23 00:20:45;;;;;;;;;0.00;0.00;;;;;22.07;76.16;100434.00;5026058;28;45488;-79
2022/08/23 00:23:10;;;;;;;;;0.00;0.00;;;;;22.07;76.17;100428.66;5021388;28;45233;-79
2022/08/23 00:25:36;;;;;;;;;0.00;0.00;;;;;22.13;76.25;100435.66;5012384;28;45399;-80
2022/08/23 00:28:03;;;;;;;;;0.00;0.00;;;;;22.16;76.56;100433.81;5011147;28;45633;-79
2022/08/23 00:30:28;;;;;;;;;0.00;0.00;;;;;22.14;76.78;100418.78;5016271;28;45329;-80
2022/08/23 00:32:54;;;;;;;;;0.00;0.00;;;;;22.18;76.74;100413.38;5009086;28;45575;-80
2022/08/23 00:35:20;;;;;;;;;0.00;0.00;;;;;22.19;77.22;100400.94;5011993;28;45498;-74
2022/08/23 00:37:46;;;;;;;;;0.00;0.00;;;;;22.19;77.43;100396.50;5008518;28;45489;-73
2022/08/23 00:40:16;;;;;;;;;0.00;0.00;;;;;22.30;76.85;100414.06;5013899;28;45543;-75
2022/08/23 00:48:53;;;;;;;;;0.00;0.00;;;;;22.09;77.06;100384.28;4985953;28;45480;-79
2022/08/23 00:51:34;;;;;;;;;0.00;0.00;;;;;22.18;76.69;100404.50;5016667;28;45810;-79
2022/08/23 00:54:00;;;;;;;;;0.00;0.00;;;;;22.16;76.69;100393.00;5016086;28;45689;-79
2022/08/23 00:56:32;;;;;;;;;0.00;0.00;;;;;22.19;78.05;100395.63;5016313;28;45424;-79
2022/08/23 00:58:57;;;;;;;;;0.00;0.00;;;;;22.19;77.48;100400.94;5018331;28;45526;-79
2022/08/23 01:01:24;;;;;;;;;0.00;0.00;;;;;22.12;78.08;100383.34;5009695;28;46540;-79
2022/08/23 01:03:53;;;;;;;;;0.00;0.00;;;;;22.17;77.93;100387.66;5010596;28;45412;-79
2022/08/23 01:06:28;;;;;;;;;0.67;0.00;;;;;22.10;77.88;100385.16;5007531;28;45526;-77
2022/08/23 01:09:01;;;;;;;;;0.00;0.00;;;;;22.13;77.92;100380.66;5015888;28;45551;-74
2022/08/23 01:11:32;;;;;;;;;0.00;0.00;;;;;22.20;77.70;100395.59;5006957;28;45502;-76
2022/08/23 01:14:53;;;;;;;;;0.00;0.00;;;;;22.18;77.91;100396.53;5013421;28;45538;-73
2022/08/23 01:17:28;;;;;;;;;0.00;0.00;;;;;22.20;78.24;100395.59;5002964;28;45814;-75
2022/08/23 01:20:01;;;;;;;;;0.00;0.00;;;;;22.15;77.24;100384.16;5016453;28;45446;-73
2022/08/23 01:22:36;;;;;;;;;0.00;0.00;;;;;22.21;77.71;100396.47;5016201;28;45911;-74
2022/08/23 01:25:07;;;;;;;;;0.00;0.00;;;;;22.20;77.61;100397.34;5015985;28;45275;-78
2022/08/23 01:27:33;;;;;;;;;0.00;0.00;;;;;22.18;77.88;100394.75;5009397;28;45569;-79
2022/08/23 01:29:59;;;;;;;;;0.00;0.00;;;;;22.13;77.82;100388.63;5013441;28;45537;-73
2022/08/23 01:32:24;;;;;;;;;0.00;0.00;;;;;22.10;78.15;100374.53;5009466;28;46230;-79
2022/08/23 01:34:50;;;;;;;;;0.00;0.00;;;;;22.12;78.11;100386.88;5012575;28;45484;-78
2022/08/23 01:37:19;;;;;;;;;0.00;0.00;;;;;22.13;77.54;100387.78;5004731;28;45613;-74
2022/08/23 01:39:45;;;;;;;;;0.00;0.00;;;;;22.12;77.46;100386.00;5014238;28;45481;-73
2022/08/23 01:42:11;;;;;;;;;0.00;0.00;;;;;21.99;78.16;100367.63;5015101;28;45531;-78
2022/08/23 01:44:36;;;;;;;;;0.00;0.00;;;;;21.95;78.28;100373.94;5018521;28;45397;-76
2022/08/23 01:47:02;;;;;;;;;0.00;0.00;;;;;21.95;78.84;100381.91;5015328;28;45562;-74
2022/08/23 01:49:28;;;;;;;;;0.00;0.00;;;;;21.88;78.78;100371.41;5019328;28;45647;-73
2022/08/23 01:51:54;;;;;;;;;0.00;0.00;;;;;21.90;79.37;100375.78;5018809;28;45545;-79
2022/08/23 01:54:20;;;;;;;;;0.00;0.00;;;;;21.84;78.22;100373.25;5028044;28;45586;-80
2022/08/23 01:56:45;;;;;;;;;0.00;0.00;;;;;21.82;78.50;100375.94;5009259;28;45430;-78
2022/08/23 01:59:12;;;;;;;;;0.00;0.00;;;;;21.85;78.83;100386.53;5019434;28;45435;-74
2022/08/23 02:01:38;;;;;;;;;0.00;0.00;;;;;21.76;78.64;100368.06;5018045;28;46422;-79
2022/08/23 02:04:04;;;;;;;;;0.00;0.00;;;;;21.78;78.26;100365.38;5010090;28;45525;-73
2022/08/23 02:06:30;;;;;;;;;0.00;0.00;;;;;21.74;78.60;100367.22;5013981;28;45451;-73
2022/08/23 02:09:01;;;;;;;;;0.00;0.00;;;;;21.79;79.09;100377.78;5010482;28;45461;-73
2022/08/23 02:11:31;;;;;;;;;0.00;0.00;;;;;21.85;78.87;100386.53;5018613;28;46461;-74
2022/08/23 02:14:00;;;;;;;;;0.33;0.00;;;;;21.85;78.17;100377.69;5012931;28;45360;-77
2022/08/23 02:16:38;;;;;;;;;0.00;0.00;;;;;21.73;78.26;100377.91;5033405;28;45490;-79
2022/08/23 02:19:06;;;;;;;;;0.00;0.00;;;;;21.66;79.34;100377.13;5019226;28;45348;-79
2022/08/23 02:21:34;;;;;;;;;0.00;0.00;;;;;21.04;79.35;100279.00;5020164;28;45464;-79
2022/08/23 02:24:13;;;;;;;;;0.00;0.00;;;;;21.51;79.52;100364.13;5017031;28;45345;-72
2022/08/23 02:26:45;;;;;;;;;0.00;0.00;;;;;21.60;78.70;100375.44;5017620;28;45400;-78
2022/08/23 02:29:11;;;;;;;;;0.00;0.00;;;;;21.47;78.42;100351.78;5018372;28;45467;-74
2022/08/23 02:31:38;;;;;;;;;0.00;0.00;;;;;21.44;78.90;100356.25;5018176;28;46293;-74
2022/08/23 02:34:04;;;;;;;;;0.00;0.00;;;;;21.39;78.59;100344.81;5013090;28;45577;-78
2022/08/23 02:36:31;;;;;;;;;0.00;0.00;;;;;21.53;79.24;100367.66;5014425;28;45484;-73
2022/08/23 02:38:56;;;;;;;;;0.00;0.00;;;;;21.51;78.23;100361.47;5016066;28;45593;-80
2022/08/23 02:41:23;;;;;;;;;0.00;0.00;;;;;21.42;78.43;100355.38;5018055;28;46151;-78
2022/08/23 02:43:52;;;;;;;;;0.00;0.00;;;;;21.46;79.14;100358.88;5017249;28;45490;-80
2022/08/23 02:46:19;;;;;;;;;0.00;0.00;;;;;21.50;79.48;100362.38;5019223;28;45265;-80
2022/08/23 02:48:44;;;;;;;;;0.00;0.00;;;;;21.40;79.80;100351.00;5018977;28;45419;-79
2022/08/23 02:51:10;;;;;;;;;0.00;0.00;;;;;21.52;79.48;100363.22;5018171;28;45505;-80
2022/08/23 02:53:36;;;;;;;;;0.00;0.00;;;;;21.57;79.12;100364.91;5018355;28;45462;-79
2022/08/23 02:56:03;;;;;;;;;0.00;0.00;;;;;21.55;79.46;100356.06;5016065;28;45424;-79
2022/08/23 02:58:28;;;;;;;;;0.00;0.00;;;;;21.50;79.30;100346.41;5018383;28;45505;-73
2022/08/23 03:00:54;;;;;;;;;0.00;0.00;;;;;21.54;79.05;100341.00;5017757;28;45466;-80
2022/08/23 03:03:20;;;;;;;;;0.00;0.00;;;;;21.71;79.38;100369.09;5018574;28;45447;-79
2022/08/23 03:05:46;;;;;;;;;0.00;0.00;;;;;21.70;79.54;100359.34;5018895;28;45447;-74
2022/08/23 03:08:12;;;;;;;;;0.00;0.00;;;;;21.65;79.34;100357.66;5017774;28;45296;-74
2022/08/23 03:10:42;;;;;;;;;0.00;0.00;;;;;21.58;79.49;100344.50;5018451;28;45518;-79
2022/08/23 03:13:07;;;;;;;;;0.00;0.00;;;;;21.62;79.05;100349.72;5018345;28;46193;-79
2022/08/23 03:15:33;;;;;;;;;0.00;0.00;;;;;21.47;79.28;100318.13;5018605;28;45358;-79
2022/08/23 03:17:58;;;;;;;;;0.00;0.00;;;;;21.61;78.90;100350.63;5018943;28;45443;-79
2022/08/23 03:20:25;;;;;;;;;0.00;0.00;;;;;21.61;78.44;100350.63;5017749;28;46700;-79
2022/08/23 03:22:51;;;;;;;;;0.00;0.00;;;;;21.60;79.59;100351.53;5016783;28;45483;-79
2022/08/23 03:25:16;;;;;;;;;0.00;0.00;;;;;21.54;79.47;100343.66;5018068;28;45440;-75
2022/08/23 03:27:42;;;;;;;;;0.00;0.00;;;;;21.50;79.44;100331.34;5016890;28;45380;-79
2022/08/23 03:30:08;;;;;;;;;0.00;0.00;;;;;21.49;79.33;100331.38;5016576;28;45534;-74
2022/08/23 03:32:34;;;;;;;;;0.00;0.00;;;;;21.55;78.95;100342.78;5015766;28;45463;-79
2022/08/23 03:34:59;;;;;;;;;0.00;0.00;;;;;21.50;79.27;100338.44;5018427;28;45430;-78
2022/08/23 03:37:25;;;;;;;;;0.00;0.00;;;;;21.49;79.77;100340.25;5017718;28;45558;-79
2022/08/23 03:39:51;;;;;;;;;0.00;0.00;;;;;21.48;79.74;100338.47;5016856;28;46512;-75
2022/08/23 03:42:17;;;;;;;;;0.00;0.00;;;;;21.51;79.35;100338.44;5014997;28;45498;-79
2022/08/23 03:44:43;;;;;;;;;0.00;0.00;;;;;21.51;79.52;100346.41;5016315;28;45435;-74
2022/08/23 03:47:09;;;;;;;;;0.00;0.00;;;;;21.44;79.09;100326.16;5017700;28;45781;-79
2022/08/23 03:49:36;;;;;;;;;0.00;0.00;;;;;21.52;79.57;100339.28;5015913;28;45445;-79
2022/08/23 03:52:02;;;;;;;;;0.00;0.00;;;;;21.52;79.79;100344.63;5016059;28;45387;-74
2022/08/23 03:54:28;;;;;;;;;0.00;0.00;;;;;21.52;80.09;100342.81;5017105;28;45419;-80
2022/08/23 03:56:58;;;;;;;;;0.00;0.00;;;;;21.50;78.72;100341.09;5017703;28;45502;-79
2022/08/23 03:59:24;;;;;;;;;0.00;0.00;;;;;21.33;79.56;100317.44;5017178;28;46515;-79
2022/08/23 04:01:49;;;;;;;;;0.00;0.00;;;;;21.25;79.57;100310.50;5016094;28;45566;-80
2022/08/23 04:04:16;;;;;;;;;0.00;0.00;;;;;21.38;80.17;100342.16;5030793;28;45512;-80
2022/08/23 04:06:43;;;;;;;;;0.00;0.00;;;;;21.25;79.72;100318.47;5032389;28;45446;-79
2022/08/23 04:09:10;;;;;;;;;0.00;0.00;;;;;21.30;79.84;100321.03;5016546;28;45517;-80
2022/08/23 04:11:36;;;;;;;;;0.00;0.00;;;;;21.33;80.18;100336.03;5015293;28;45401;-79
2022/08/23 04:14:01;;;;;;;;;0.00;0.00;;;;;21.19;79.92;100326.56;5016316;28;45531;-79
2022/08/23 04:16:29;;;;;;;;;0.00;0.00;;;;;21.19;80.77;100341.63;5017006;28;45424;-79
2022/08/23 04:18:54;;;;;;;;;0.00;0.00;;;;;21.18;80.36;100332.75;5017369;28;45478;-80
2022/08/23 04:21:22;;;;;;;;;0.00;0.00;;;;;21.17;80.29;100338.09;5032036;28;45451;-78
2022/08/23 04:23:48;;;;;;;;;0.00;0.00;;;;;21.14;80.11;100339.03;5017702;28;45498;-79
2022/08/23 04:26:16;;;;;;;;;0.00;0.00;;;;;20.87;80.74;100284.63;5016231;28;45539;-79
2022/08/23 04:28:42;;;;;;;;;0.00;0.00;;;;;21.10;80.48;100329.34;5017066;28;46617;-79
2022/08/23 04:31:07;;;;;;;;;0.00;0.00;;;;;20.65;80.34;100269.03;5017222;28;45363;-78
2022/08/23 04:33:34;;;;;;;;;0.00;0.00;;;;;20.84;80.24;100303.25;5015612;28;45379;-79
2022/08/23 04:36:03;;;;;;;;;0.00;0.00;;;;;21.01;80.48;100333.06;5017131;28;45450;-79
2022/08/23 04:38:29;;;;;;;;;1.00;0.00;;;;;21.01;80.18;100338.38;5031756;28;46678;-79
2022/08/23 04:43:41;;;;;;;;;1.00;1.00;;;;;20.92;80.38;100332.31;5016054;28;45451;-78
2022/08/23 04:46:06;;;;;;;;;0.00;0.00;;;;;20.86;81.07;100333.28;5015494;28;45384;-79
2022/08/23 04:48:32;;;;;;;;;0.00;0.00;;;;;20.75;80.83;100317.53;5015780;28;45553;-79
2022/08/23 04:50:58;;;;;;;;;0.00;0.00;;;;;20.87;80.67;100340.38;5014862;28;45505;-78
2022/08/23 04:53:24;;;;;;;;;1.67;1.00;;;;;20.89;80.59;100345.63;5016367;28;45396;-79
2022/08/23 04:55:51;;;;;;;;;1.00;1.00;;;;;20.78;80.63;100329.88;5015232;28;45637;-78
2022/08/23 04:58:17;;;;;;;;;0.00;0.00;;;;;20.84;80.81;100345.72;5015717;28;45651;-76
2022/08/23 05:00:43;;;;;;;;;0.00;0.00;;;;;20.60;81.01;100315.13;5014389;28;45501;-79
2022/08/23 05:03:08;;;;;;;;;0.00;0.00;;;;;20.55;81.10;100315.16;5014688;28;45449;-78
2022/08/23 05:05:34;;;;;;;;;0.00;0.00;;;;;20.77;81.38;100358.22;5017288;28;45452;-78
2022/08/23 05:08:00;;;;;;;;;0.00;0.00;;;;;20.41;81.21;100287.94;5015438;28;45550;-79
2022/08/23 05:10:25;;;;;;;;;0.00;0.00;;;;;20.69;81.40;100340.63;5016943;28;45320;-79
2022/08/23 05:12:51;;;;;;;;;0.00;0.00;;;;;20.65;81.06;100337.13;5016014;28;45605;-79
2022/08/23 05:15:16;;;;;;;;;0.00;0.00;;;;;20.81;80.90;100345.75;5016101;28;45642;-79
2022/08/23 05:17:42;;;;;;;;;0.00;0.00;;;;;20.80;81.15;100341.34;5015838;28;45606;-75
2022/08/23 05:20:09;;;;;;;;;0.00;0.00;;;;;20.69;81.39;100315.00;5016757;28;45494;-78
2022/08/23 05:22:37;;;;;;;;;0.00;0.00;;;;;20.94;81.25;100355.28;5017419;28;45615;-74
2022/08/23 05:25:04;;;;;;;;;0.00;0.00;;;;;20.86;81.10;100326.19;5019065;28;45587;-79
2022/08/23 05:27:29;;;;;;;;;0.00;0.00;;;;;21.01;80.84;100354.31;5018438;28;45474;-73
2022/08/23 05:29:55;;;;;;;;;0.00;0.00;;;;;20.96;80.60;100337.56;5033833;28;45407;-76
2022/08/23 05:32:21;;;;;;;;;0.00;0.00;;;;;21.08;80.99;100344.44;5018451;28;45497;-73
2022/08/23 05:34:48;;;;;;;;;0.00;0.00;;;;;20.91;80.90;100307.56;5018945;28;45585;-76
2022/08/23 05:37:14;;;;;;;;;0.00;0.00;;;;;21.11;80.55;100332.88;5034218;28;45512;-73
2022/08/23 05:39:40;;;;;;;;;8.00;7.00;;;;;21.16;79.86;100337.22;5019002;28;45508;-80
2022/08/23 05:42:13;;;;;;;;;1.00;1.00;;;;;21.25;80.53;100345.03;5018812;28;45449;-79
2022/08/23 05:44:39;;;;;;;;;1.00;0.00;;;;;21.22;80.24;100349.53;5017257;28;45523;-76
2022/08/23 05:47:06;;;;;;;;;1.00;0.00;;;;;21.06;80.20;100327.66;5016985;28;47739;-79
2022/08/23 05:49:35;;;;;;;;;0.00;0.00;;;;;21.12;80.15;100338.19;5014006;28;45502;-76
2022/08/23 05:52:06;;;;;;;;;0.00;0.00;;;;;21.11;80.52;100332.88;5014835;28;45373;-75
2022/08/23 05:54:32;;;;;;;;;0.00;0.00;;;;;21.14;80.11;100325.75;5015566;28;45516;-74
2022/08/23 05:56:58;;;;;;;;;0.00;0.00;;;;;21.17;80.03;100328.38;5016742;28;46066;-79
2022/08/23 05:59:23;;;;;;;;;0.00;0.00;;;;;21.29;79.19;100337.91;5016748;28;45543;-78
2022/08/23 06:01:49;;;;;;;;;1.00;0.00;;;;;21.20;78.86;100333.59;5017318;28;45556;-78
2022/08/23 06:04:15;;;;;;;;;0.00;0.00;;;;;21.20;79.45;100332.75;5017534;28;46527;-73
2022/08/23 06:06:42;;;;;;;;;0.00;0.00;;;;;21.35;78.85;100353.75;5013278;28;46770;-78
2022/08/23 06:09:11;;;;;;;;;0.00;0.00;;;;;21.36;78.98;100358.13;5023886;28;45545;-73
2022/08/23 06:11:37;;;;;;;;;0.00;0.00;;;;;21.38;78.71;100352.81;5017347;28;45299;-78
2022/08/23 06:14:05;;;;;;;;;1.00;0.00;;;;;21.41;79.33;100355.41;5018498;28;45529;-78
2022/08/23 06:16:36;;;;;;;;;0.00;0.00;;;;;21.45;79.70;100351.84;5016515;28;45539;-79
2022/08/23 06:19:03;;;;;;;;;0.00;0.00;;;;;21.54;78.87;100356.97;5013457;28;45384;-79
2022/08/23 06:21:29;;;;;;;;;0.00;0.00;;;;;21.61;79.24;100361.28;5017341;28;45482;-77
2022/08/23 06:23:55;;;;;;;;;0.67;0.00;;;;;21.52;78.73;100334.84;5017087;28;45482;-78
2022/08/23 06:26:31;;;;;;;;;0.00;0.00;;;;;21.84;78.58;100362.59;5038708;28;45498;-74
2022/08/23 06:29:01;;;;;;;;;0.00;0.00;;;;;22.00;78.06;100358.75;5016611;28;45478;-78
2022/08/23 06:34:14;;;;;;;;;0.33;0.00;;;;;22.22;76.46;100353.88;5016068;28;45438;-79
2022/08/23 06:36:39;;;;;;;;;0.00;0.00;;;;;22.33;75.09;100359.00;5016067;28;46475;-78
2022/08/23 06:39:07;;;;;;;;;1.00;1.00;;;;;22.47;75.59;100348.03;5016509;28;47650;-79
2022/08/23 06:41:33;;;;;;;;;0.00;0.00;;;;;22.61;74.71;100350.41;5015452;28;45918;-79
2022/08/23 06:43:58;;;;;;;;;0.00;0.00;;;;;22.74;74.04;100346.53;5016349;28;45517;-79
2022/08/23 06:46:26;;;;;;;;;0.00;0.00;;;;;22.81;73.51;100364.13;5015795;28;46419;-77
2022/08/23 06:48:52;;;;;;;;;1.00;1.00;;;;;22.85;74.02;100348.94;5016694;28;45489;-73
2022/08/23 06:51:31;;;;;;;;;1.00;0.00;;;;;23.04;73.19;100362.75;5016657;28;45347;-76
2022/08/23 06:53:58;;;;;;;;;1.00;0.67;;;;;22.95;72.47;100326.50;5032176;28;45736;-79
2022/08/23 06:56:26;;;;;;;;;2.00;2.00;;;;;23.51;72.45;100363.31;5016325;28;45581;-76
2022/08/23 06:58:52;;;;;;;;;0.00;0.00;;;;;23.55;72.07;100350.78;5015642;28;45348;-78
2022/08/23 07:01:36;;;;;;;;;0.33;0.33;;;;;23.60;72.00;100365.75;5022357;28;45650;-78
2022/08/23 07:04:04;;;;;;;;;0.00;0.00;;;;;23.61;71.75;100366.59;5039041;28;45504;-74
2022/08/23 07:06:29;;;;;;;;;0.00;0.00;;;;;23.54;71.46;100371.25;5016183;28;45646;-73
2022/08/23 07:08:57;;;;;;;;;0.00;0.00;;;;;23.45;71.69;100355.47;5015671;28;45522;-79
2022/08/23 07:11:24;;;;;;;;;1.00;1.00;;;;;23.63;71.55;100373.66;5026841;28;45417;-79
2022/08/23 07:13:51;;;;;;;;;0.00;0.00;;;;;23.68;70.63;100352.19;5031505;28;45630;-76
2022/08/23 07:16:18;;;;;;;;;1.00;0.67;;;;;23.79;70.93;100365.25;5014415;28;46421;-77
2022/08/23 07:18:45;;;;;;;;;1.67;1.00;;;;;23.77;70.86;100359.06;5015144;28;45533;-78
2022/08/23 07:21:12;;;;;;;;;1.00;1.00;;;;;23.79;70.34;100376.78;5015829;28;45469;-79
2022/08/23 07:23:38;;;;;;;;;1.00;0.33;;;;;23.64;70.03;100350.53;5015717;28;45584;-79
2022/08/23 07:26:10;;;;;;;;;1.33;0.00;;;;;23.75;69.63;100369.75;5014062;28;46495;-77
2022/08/23 07:28:37;;;;;;;;;1.00;0.33;;;;;23.82;70.11;100363.38;5013481;28;45493;-79
2022/08/23 07:31:16;;;;;;;;;0.00;0.00;;;;;23.93;69.99;100368.41;5016411;28;45485;-79
2022/08/23 07:33:43;;;;;;;;;1.00;1.00;;;;;24.09;68.66;100366.19;5015428;28;45503;-74
2022/08/23 07:36:12;;;;;;;;;0.00;0.00;;;;;24.34;68.43;100350.34;5015129;28;46786;-75
2022/08/23 07:38:39;;;;;;;;;0.00;0.00;;;;;24.56;68.02;100317.66;5015347;28;45448;-76
2022/08/23 07:41:04;;;;;;;;;0.00;0.00;;;;;24.98;65.43;100333.22;5031739;28;45486;-76
2022/08/23 07:43:32;;;;;;;;;0.00;0.00;;;;;25.26;65.44;100349.25;5013916;28;45643;-74
2022/08/23 07:45:58;;;;;;;;;0.00;0.00;;;;;25.41;64.61;100350.53;5030312;28;45585;-75
2022/08/23 07:48:24;;;;;;;;;0.00;0.00;;;;;26.38;61.86;100329.16;5013933;28;45531;-74
2022/08/23 07:50:54;;;;;;;;;0.33;0.00;;;;;27.62;58.16;100335.72;5019565;28;45707;-75
2022/08/23 07:53:20;;;;;;;;;0.00;0.00;;;;;27.88;56.14;100305.03;5014250;28;45475;-74
2022/08/23 07:55:45;;;;;;;;;0.00;0.00;;;;;27.91;57.39;100345.19;5015135;28;46624;-75
2022/08/23 07:58:11;;;;;;;;;2.00;1.00;;;;;27.36;57.16;100336.84;5015239;28;45609;-76
2022/08/23 08:00:37;;;;;;;;;1.00;1.00;;;;;27.07;58.48;100311.25;5015710;28;45412;-76
2022/08/23 08:03:03;;;;;;;;;1.00;1.00;;;;;27.08;57.17;100268.28;5015598;28;45300;-75
2022/08/23 08:05:31;;;;;;;;;2.00;1.00;;;;;27.56;57.66;100339.53;5013700;28;45477;-75
2022/08/23 08:07:57;;;;;;;;;1.00;1.00;;;;;27.61;57.05;100311.63;5014876;28;45394;-78
2022/08/23 08:10:23;;;;;;;;;0.00;0.00;;;;;27.96;56.43;100348.53;5015574;28;45462;-75
2022/08/23 08:12:49;;;;;;;;;0.33;0.00;;;;;30.00;51.55;100346.59;5014171;28;45718;-74
2022/08/23 08:15:16;;;;;;;;;1.00;0.00;;;;;31.75;49.55;100347.34;5014990;28;46354;-78
2022/08/23 08:17:41;;;;;;;;;0.00;0.00;;;;;33.75;43.15;100292.81;5013924;28;45544;-74
2022/08/23 08:20:07;;;;;;;;;1.00;1.00;;;;;35.78;38.91;100330.13;5014580;28;45432;-75
2022/08/23 08:22:33;;;;;;;;;1.67;0.00;;;;;37.99;36.24;100321.66;5009713;28;45396;-75
2022/08/23 08:24:59;;;;;;;;;0.67;0.00;;;;;39.04;33.57;100327.69;5014768;28;45467;-78
2022/08/23 08:27:24;;;;;;;;;0.00;0.00;;;;;39.78;31.70;100347.06;5004237;28;45556;-75
2022/08/23 08:29:50;;;;;;;;;0.00;0.00;;;;;40.02;31.06;100328.44;5012611;28;45520;-76
2022/08/23 08:32:15;;;;;;;;;0.00;0.00;;;;;37.98;35.39;100339.03;5012500;28;45586;-76
2022/08/23 08:34:42;;;;;;;;;0.00;0.00;;;;;35.82;36.96;100334.31;5011144;28;47012;-77
2022/08/23 08:37:08;;;;;;;;;0.67;0.00;;;;;34.53;39.45;100327.81;5028751;28;45475;-78
2022/08/23 08:39:33;;;;;;;;;0.67;0.00;;;;;33.78;41.06;100336.78;5026793;28;45627;-75
2022/08/23 08:42:17;;;;;;;;;0.00;0.00;;;;;33.26;42.71;100345.81;5012601;28;45602;-76
2022/08/23 08:44:53;;;;;;;;;0.00;0.00;;;;;33.20;42.72;100327.28;5026285;28;46675;-77
2022/08/23 08:47:39;;;;;;;;;0.33;0.33;;;;;33.03;42.74;100304.91;5013272;28;45529;-75
2022/08/23 08:50:05;;;;;;;;;0.00;0.00;;;;;33.58;42.11;100340.88;5014034;28;45519;-73
2022/08/23 08:52:55;;;;;;;;;1.67;1.33;;;;;33.51;42.98;100338.72;5018034;28;45542;-76
2022/08/23 08:55:29;;;;;;;;;1.00;1.00;;;;;33.05;44.00;100321.06;4985470;28;45493;-76
2022/08/23 08:57:55;;;;;;;;;0.00;0.00;;;;;32.86;43.83;100324.97;5019631;28;45399;-75
2022/08/23 09:00:29;;;;;;;;;0.00;0.00;;;;;33.05;43.19;100311.09;5020225;28;45400;-76
2022/08/23 09:02:57;;;;;;;;;0.00;0.00;;;;;33.22;44.32;100339.72;5011467;28;45942;-76
2022/08/23 09:05:30;;;;;;;;;0.00;0.00;;;;;33.13;43.46;100317.84;5011338;28;46290;-77
2022/08/23 09:07:56;;;;;;;;;1.33;1.00;;;;;33.12;43.17;100337.78;5011596;28;45616;-77
2022/08/23 09:10:27;;;;;;;;;0.00;0.00;;;;;32.70;44.15;100338.66;5020824;28;45582;-76
2022/08/23 09:13:18;;;;;;;;;0.00;0.00;;;;;32.66;43.73;100329.00;5010594;28;45551;-75
2022/08/23 09:15:43;;;;;;;;;0.00;0.00;;;;;32.46;43.76;100340.25;5027576;28;47946;-75
2022/08/23 09:18:12;;;;;;;;;0.00;0.00;;;;;32.67;44.17;100336.16;5013872;28;45485;-77
2022/08/23 09:20:40;;;;;;;;;0.00;0.00;;;;;32.99;44.15;100337.69;5013465;28;45482;-76
2022/08/23 09:23:24;;;;;;;;;0.00;0.00;;;;;33.37;43.41;100304.47;4997165;28;45696;-76
2022/08/23 09:25:56;;;;;;;;;0.00;0.00;;;;;34.04;42.18;100329.53;5012730;28;45506;-76
2022/08/23 09:28:22;;;;;;;;;0.00;0.00;;;;;35.01;39.86;100327.00;5009816;28;46276;-75
2022/08/23 09:30:56;;;;;;;;;0.00;0.00;;;;;35.25;40.34;100319.72;5012554;28;45443;-74
2022/08/23 09:33:36;;;;;;;;;0.00;0.00;;;;;35.27;38.72;100335.91;5011444;28;45702;-75
2022/08/23 09:36:19;;;;;;;;;0.67;0.67;;;;;36.16;37.43;100322.63;5013173;28;46338;-75
2022/08/23 09:38:55;;;;;;;;;2.33;1.67;;;;;36.52;37.04;100312.44;5010277;28;45444;-77
2022/08/23 09:41:31;;;;;;;;;0.00;0.00;;;;;36.27;37.27;100314.44;5011719;28;45312;-75
2022/08/23 09:44:00;;;;;;;;;0.00;0.00;;;;;35.57;37.94;100297.31;5011610;28;45504;-75
2022/08/23 09:46:32;;;;;;;;;0.67;0.67;;;;;35.91;37.48;100310.09;5011467;28;45803;-76
2022/08/23 09:48:59;;;;;;;;;0.67;0.67;;;;;37.36;35.26;100289.00;5011235;28;45453;-76
2022/08/23 09:51:34;;;;;;;;;0.00;0.00;;;;;37.17;35.24;100308.81;5013475;28;45557;-75
2022/08/23 09:54:11;;;;;;;;;0.00;0.00;;;;;36.66;36.07;100306.75;5014175;28;45565;-76
2022/08/23 09:56:41;;;;;;;;;0.00;0.00;;;;;35.88;36.33;100310.38;5011555;28;45641;-73
2022/08/23 09:59:43;;;;;;;;;0.00;0.00;;;;;34.66;38.79;100298.00;5012486;28;45324;-76
2022/08/23 10:02:23;;;;;;;;;0.00;0.00;;;;;33.93;39.91;100306.91;5011642;28;46533;-75
2022/08/23 10:05:04;;;;;;;;;0.00;0.00;;;;;33.13;41.54;100309.72;5012133;28;45910;-73
2022/08/23 10:07:40;;;;;;;;;1.00;1.00;;;;;32.69;42.08;100285.53;5014204;28;46483;-75
2022/08/23 10:10:33;;;;;;;;;0.00;0.00;;;;;32.70;42.84;100317.00;5016842;28;45320;-78
2022/08/23 10:12:59;;;;;;;;;0.00;0.00;;;;;33.55;40.81;100292.34;5013967;28;45377;-74
2022/08/23 10:15:39;;;;;;;;;0.00;0.00;;;;;33.34;40.49;100293.84;5016840;28;45578;-74
2022/08/23 10:18:50;;;;;;;;;0.00;0.00;;;;;33.25;40.12;100295.38;5009018;28;45469;-74
2022/08/23 10:21:30;;;;;;;;;0.00;0.00;;;;;33.30;39.99;100304.03;4997665;28;45449;-74
2022/08/23 10:24:28;;;;;;;;;0.00;0.00;;;;;32.95;40.33;100300.97;5015745;28;45447;-75
2022/08/23 10:27:02;;;;;;;;;0.00;0.00;;;;;32.75;41.71;100286.97;5000766;28;45583;-77
2022/08/23 10:29:41;;;;;;;;;1.00;0.00;;;;;32.71;41.36;100307.09;5032031;28;47171;-75
2022/08/23 10:32:33;;;;;;;;;0.00;0.00;;;;;32.65;41.41;100307.47;5016855;28;46409;-74
2022/08/23 10:35:30;;;;;;;;;0.00;0.00;;;;;32.23;42.16;100302.06;5000805;28;45401;-76
2022/08/23 10:38:31;;;;;;;;;0.00;0.00;;;;;32.21;42.48;100295.88;5021360;28;45365;-74
2022/08/23 10:41:02;;;;;;;;;0.33;0.33;;;;;33.75;40.73;100293.69;5011856;28;45586;-77
2022/08/23 10:43:53;;;;;;;;;0.67;0.67;;;;;33.51;40.15;100280.00;5016680;28;45508;-77
2022/08/23 10:46:21;;;;;;;;;0.00;0.00;;;;;33.01;40.99;100301.44;5016825;28;46299;-75
2022/08/23 10:48:56;;;;;;;;;0.00;0.00;;;;;32.76;41.77;100294.09;5015817;28;45385;-77
2022/08/23 10:51:39;;;;;;;;;0.00;0.00;;;;;32.88;41.05;100289.72;5016510;28;45940;-76
2022/08/23 10:54:14;;;;;;;;;0.00;0.00;;;;;32.73;41.45;100272.69;5016890;28;45750;-76
2022/08/23 10:56:41;;;;;;;;;0.67;0.67;;;;;32.30;42.22;100264.69;5016749;28;45992;-73
2022/08/23 10:59:19;;;;;;;;;0.00;0.00;;;;;33.01;41.55;100276.25;5015618;28;45509;-74
2022/08/23 11:02:19;;;;;;;;;0.00;0.00;;;;;32.93;41.01;100252.41;5016752;28;46275;-77
2022/08/23 11:05:02;;;;;;;;;0.00;0.00;;;;;32.47;42.00;100283.38;5016802;28;45307;-74
2022/08/23 11:07:33;;;;;;;;;0.00;0.00;;;;;32.44;42.01;100288.09;5014648;28;45609;-75
2022/08/23 11:10:04;;;;;;;;;0.00;0.00;;;;;32.55;42.17;100295.50;5001465;28;45546;-74
2022/08/23 11:12:50;;;;;;;;;0.00;0.00;;;;;32.48;42.53;100276.97;5016370;28;46380;-74
2022/08/23 11:15:42;;;;;;;;;0.00;0.00;;;;;31.74;41.86;100204.34;5016310;28;45517;-76
2022/08/23 11:18:10;;;;;;;;;0.00;0.00;;;;;31.99;43.11;100285.53;5014190;28;45557;-75
2022/08/23 11:20:48;;;;;;;;;1.00;0.00;;;;;31.87;42.79;100283.59;5031823;28;45677;-75
2022/08/23 11:23:34;;;;;;;;;0.00;0.00;;;;;32.05;42.78;100265.38;5015649;28;46499;-74
2022/08/23 11:26:01;;;;;;;;;0.00;0.00;;;;;32.59;43.10;100289.84;5015826;28;45478;-78
2022/08/23 11:28:38;;;;;;;;;1.33;1.33;;;;;33.09;41.48;100280.16;5014758;28;45384;-74
2022/08/23 11:31:10;;;;;;;;;0.67;0.67;;;;;33.31;41.19;100280.50;5029359;28;45621;-78
2022/08/23 11:33:45;;;;;;;;;0.00;0.00;;;;;33.35;40.40;100263.09;5016256;28;45703;-76
2022/08/23 11:36:22;;;;;;;;;0.00;0.00;;;;;33.67;40.53;100277.13;5015989;28;45485;-76
2022/08/23 11:38:47;;;;;;;;;0.00;0.00;;;;;33.83;39.86;100277.75;5029723;28;45480;-78
2022/08/23 11:41:19;;;;;;;;;0.00;0.00;;;;;33.38;40.21;100279.97;5013990;28;45594;-78
2022/08/23 11:44:15;;;;;;;;;0.00;0.00;;;;;33.34;40.83;100253.25;5016015;28;45529;-76
2022/08/23 11:46:49;;;;;;;;;0.33;0.00;;;;;33.68;40.31;100270.72;5015617;28;45498;-76
2022/08/23 11:49:27;;;;;;;;;0.00;0.00;;;;;33.04;41.04;100268.75;5016226;28;45533;-77